sensor_id;sensor_type;location;lat;lon;timestamp;pressure;altitude;pressure_sealevel;temperature;humidity
60920;BME280;59039;52.108;19.942;2023-07-22T00:00:26;100000.73;;;19.37;65.93
60920;BME280;59039;52.108;19.942;2023-07-22T00:02:51;99997.48;;;19.34;66.07
60920;BME280;59039;52.108;19.942;2023-07-22T00:05:16;99991.48;;;19.33;65.88
60920;BME280;59039;52.108;19.942;2023-07-22T00:07:41;99997.95;;;19.30;66.17
60920;BME280;59039;52.108;19.942;2023-07-22T00:10:07;100000.55;;;19.27;65.98
60920;BME280;59039;52.108;19.942;2023-07-22T00:12:35;99995.64;;;19.26;65.95
60920;BME280;59039;52.108;19.942;2023-07-22T00:15:01;99994.79;;;19.25;66.73
60920;BME280;59039;52.108;19.942;2023-07-22T00:17:26;99998.03;;;19.23;67.37
60920;BME280;59039;52.108;19.942;2023-07-22T00:19:51;100005.38;;;19.20;67.41
60920;BME280;59039;52.108;19.942;2023-07-22T00:22:16;100000.81;;;19.19;66.78
60920;BME280;59039;52.108;19.942;2023-07-22T00:24:41;99989.42;;;19.16;67.40
60920;BME280;59039;52.108;19.942;2023-07-22T00:27:07;99975.83;;;19.14;67.10
60920;BME280;59039;52.108;19.942;2023-07-22T00:29:32;99976.23;;;19.12;66.98
60920;BME280;59039;52.108;19.942;2023-07-22T00:31:57;99972.75;;;19.11;67.97
60920;BME280;59039;52.108;19.942;2023-07-22T00:34:22;99978.73;;;19.10;67.66
60920;BME280;59039;52.108;19.942;2023-07-22T00:36:48;99978.23;;;19.10;68.14
60920;BME280;59039;52.108;19.942;2023-07-22T00:39:13;99977.33;;;19.10;68.38
60920;BME280;59039;52.108;19.942;2023-07-22T00:41:38;99978.48;;;19.10;67.58
60920;BME280;59039;52.108;19.942;2023-07-22T00:44:03;99973.70;;;19.08;67.53
60920;BME280;59039;52.108;19.942;2023-07-22T00:46:28;99967.02;;;19.06;67.58
60920;BME280;59039;52.108;19.942;2023-07-22T00:48:54;99966.42;;;19.03;67.56
60920;BME280;59039;52.108;19.942;2023-07-22T00:51:19;99962.84;;;18.98;67.94
60920;BME280;59039;52.108;19.942;2023-07-22T00:53:45;99965.31;;;18.95;68.45
60920;BME280;59039;52.108;19.942;2023-07-22T00:56:10;99964.14;;;18.92;67.99
60920;BME280;59039;52.108;19.942;2023-07-22T00:58:35;99960.58;;;18.86;67.89
60920;BME280;59039;52.108;19.942;2023-07-22T01:01:00;99965.27;;;18.80;67.68
60920;BME280;59039;52.108;19.942;2023-07-22T01:03:26;99970.27;;;18.76;67.92
60920;BME280;59039;52.108;19.942;2023-07-22T01:05:52;99974.38;;;18.72;68.87
60920;BME280;59039;52.108;19.942;2023-07-22T01:08:18;99974.85;;;18.70;68.87
60920;BME280;59039;52.108;19.942;2023-07-22T01:10:43;99974.61;;;18.70;68.56
60920;BME280;59039;52.108;19.942;2023-07-22T01:13:09;99972.96;;;18.68;68.75
60920;BME280;59039;52.108;19.942;2023-07-22T01:15:34;99979.58;;;18.67;69.19
60920;BME280;59039;52.108;19.942;2023-07-22T01:18:00;99977.50;;;18.66;69.55
60920;BME280;59039;52.108;19.942;2023-07-22T01:20:29;99981.36;;;18.65;69.41
60920;BME280;59039;52.108;19.942;2023-07-22T01:22:54;99977.85;;;18.65;69.41
60920;BME280;59039;52.108;19.942;2023-07-22T01:25:20;99974.67;;;18.65;69.79
60920;BME280;59039;52.108;19.942;2023-07-22T01:27:46;99970.31;;;18.65;70.35
60920;BME280;59039;52.108;19.942;2023-07-22T01:30:11;99960.54;;;18.64;70.19
60920;BME280;59039;52.108;19.942;2023-07-22T01:32:36;99964.00;;;18.64;69.99
60920;BME280;59039;52.108;19.942;2023-07-22T01:35:02;99964.97;;;18.65;69.63
60920;BME280;59039;52.108;19.942;2023-07-22T01:37:27;99964.89;;;18.66;69.70
60920;BME280;59039;52.108;19.942;2023-07-22T01:39:52;99962.98;;;18.67;69.62
60920;BME280;59039;52.108;19.942;2023-07-22T01:42:17;99959.98;;;18.67;69.32
60920;BME280;59039;52.108;19.942;2023-07-22T01:44:43;99953.54;;;18.67;69.35
60920;BME280;59039;52.108;19.942;2023-07-22T01:47:08;99947.86;;;18.67;69.58
60920;BME280;59039;52.108;19.942;2023-07-22T01:49:33;99948.11;;;18.66;70.33
60920;BME280;59039;52.108;19.942;2023-07-22T01:51:58;99941.01;;;18.65;70.75
60920;BME280;59039;52.108;19.942;2023-07-22T01:54:23;99939.66;;;18.64;70.82
60920;BME280;59039;52.108;19.942;2023-07-22T01:56:49;99940.52;;;18.62;70.82
60920;BME280;59039;52.108;19.942;2023-07-22T01:59:14;99936.63;;;18.59;70.56
60920;BME280;59039;52.108;19.942;2023-07-22T02:01:39;99932.23;;;18.58;70.16
60920;BME280;59039;52.108;19.942;2023-07-22T02:04:04;99930.80;;;18.57;70.17
60920;BME280;59039;52.108;19.942;2023-07-22T02:06:30;99929.45;;;18.57;70.59
60920;BME280;59039;52.108;19.942;2023-07-22T02:08:55;99928.02;;;18.55;70.97
60920;BME280;59039;52.108;19.942;2023-07-22T02:11:20;99927.04;;;18.54;70.26
60920;BME280;59039;52.108;19.942;2023-07-22T02:13:46;99930.10;;;18.54;69.98
60920;BME280;59039;52.108;19.942;2023-07-22T02:16:11;99933.61;;;18.52;69.73
60920;BME280;59039;52.108;19.942;2023-07-22T02:18:36;99933.80;;;18.51;70.17
60920;BME280;59039;52.108;19.942;2023-07-22T02:21:01;99934.52;;;18.50;70.14
60920;BME280;59039;52.108;19.942;2023-07-22T02:23:27;99936.68;;;18.49;70.75
60920;BME280;59039;52.108;19.942;2023-07-22T02:25:53;99938.98;;;18.47;70.98
60920;BME280;59039;52.108;19.942;2023-07-22T02:28:19;99941.18;;;18.45;70.87
60920;BME280;59039;52.108;19.942;2023-07-22T02:30:45;99948.86;;;18.44;71.50
60920;BME280;59039;52.108;19.942;2023-07-22T02:33:10;99944.79;;;18.43;70.78
60920;BME280;59039;52.108;19.942;2023-07-22T02:35:35;99941.70;;;18.43;70.79
60920;BME280;59039;52.108;19.942;2023-07-22T02:38:00;99941.73;;;18.43;70.58
60920;BME280;59039;52.108;19.942;2023-07-22T02:40:25;99936.70;;;18.44;70.48
60920;BME280;59039;52.108;19.942;2023-07-22T02:42:51;99941.83;;;18.44;70.56
60920;BME280;59039;52.108;19.942;2023-07-22T02:45:16;99949.73;;;18.43;70.46
60920;BME280;59039;52.108;19.942;2023-07-22T02:47:41;99954.52;;;18.43;70.46
60920;BME280;59039;52.108;19.942;2023-07-22T02:50:07;99954.87;;;18.42;70.35
60920;BME280;59039;52.108;19.942;2023-07-22T02:52:32;99958.09;;;18.41;70.62
60920;BME280;59039;52.108;19.942;2023-07-22T02:57:34;99967.48;;;18.41;70.65
60920;BME280;59039;52.108;19.942;2023-07-22T02:59:59;99968.63;;;18.41;70.28
60920;BME280;59039;52.108;19.942;2023-07-22T03:02:25;99969.53;;;18.40;70.00
60920;BME280;59039;52.108;19.942;2023-07-22T03:04:50;99968.39;;;18.39;70.52
60920;BME280;59039;52.108;19.942;2023-07-22T03:07:15;99975.08;;;18.38;70.32
60920;BME280;59039;52.108;19.942;2023-07-22T03:09:40;99972.88;;;18.38;70.59
60920;BME280;59039;52.108;19.942;2023-07-22T03:12:06;99971.27;;;18.38;70.70
60920;BME280;59039;52.108;19.942;2023-07-22T03:14:31;99969.96;;;18.36;70.80
60920;BME280;59039;52.108;19.942;2023-07-22T03:16:57;99974.20;;;18.35;70.98
60920;BME280;59039;52.108;19.942;2023-07-22T03:19:22;99967.59;;;18.34;70.87
60920;BME280;59039;52.108;19.942;2023-07-22T03:21:47;99971.79;;;18.32;71.15
60920;BME280;59039;52.108;19.942;2023-07-22T03:24:13;99972.69;;;18.31;71.09
60920;BME280;59039;52.108;19.942;2023-07-22T03:26:38;99973.07;;;18.30;71.24
60920;BME280;59039;52.108;19.942;2023-07-22T03:29:03;99977.27;;;18.29;70.91
60920;BME280;59039;52.108;19.942;2023-07-22T03:31:28;99977.86;;;18.29;71.27
60920;BME280;59039;52.108;19.942;2023-07-22T03:33:54;99976.25;;;18.28;71.44
60920;BME280;59039;52.108;19.942;2023-07-22T03:36:19;99970.99;;;18.29;71.55
60920;BME280;59039;52.108;19.942;2023-07-22T03:38:44;99970.21;;;18.28;71.36
60920;BME280;59039;52.108;19.942;2023-07-22T03:41:09;99969.10;;;18.28;71.54
60920;BME280;59039;52.108;19.942;2023-07-22T03:43:34;99971.77;;;18.29;71.45
60920;BME280;59039;52.108;19.942;2023-07-22T03:46:00;99980.34;;;18.29;71.65
60920;BME280;59039;52.108;19.942;2023-07-22T03:48:25;99984.08;;;18.29;71.43
60920;BME280;59039;52.108;19.942;2023-07-22T03:50:50;99988.70;;;18.28;71.59
60920;BME280;59039;52.108;19.942;2023-07-22T03:53:15;99989.87;;;18.29;71.39
60920;BME280;59039;52.108;19.942;2023-07-22T03:55:41;99991.20;;;18.30;71.42
60920;BME280;59039;52.108;19.942;2023-07-22T03:58:06;99989.90;;;18.31;71.61
60920;BME280;59039;52.108;19.942;2023-07-22T04:00:31;99992.27;;;18.32;71.26
60920;BME280;59039;52.108;19.942;2023-07-22T04:02:56;99991.09;;;18.34;71.46
60920;BME280;59039;52.108;19.942;2023-07-22T04:05:21;99992.73;;;18.35;71.52
60920;BME280;59039;52.108;19.942;2023-07-22T04:07:47;99994.93;;;18.36;71.65
60920;BME280;59039;52.108;19.942;2023-07-22T04:10:12;100002.13;;;18.37;71.53
60920;BME280;59039;52.108;19.942;2023-07-22T04:12:37;100004.54;;;18.37;71.53
60920;BME280;59039;52.108;19.942;2023-07-22T04:15:02;100007.66;;;18.38;71.62
60920;BME280;59039;52.108;19.942;2023-07-22T04:17:28;100012.91;;;18.39;71.53
60920;BME280;59039;52.108;19.942;2023-07-22T04:19:54;100009.44;;;18.39;71.32
60920;BME280;59039;52.108;19.942;2023-07-22T04:22:20;100009.15;;;18.38;70.91
60920;BME280;59039;52.108;19.942;2023-07-22T04:24:46;100012.40;;;18.39;71.01
60920;BME280;59039;52.108;19.942;2023-07-22T04:27:11;100007.38;;;18.38;70.79
60920;BME280;59039;52.108;19.942;2023-07-22T04:29:36;100005.98;;;18.37;71.04
60920;BME280;59039;52.108;19.942;2023-07-22T04:32:01;100007.23;;;18.38;70.95
60920;BME280;59039;52.108;19.942;2023-07-22T04:34:31;100007.33;;;18.38;71.03
60920;BME280;59039;52.108;19.942;2023-07-22T04:36:56;100016.30;;;18.38;71.27
60920;BME280;59039;52.108;19.942;2023-07-22T04:39:22;100017.14;;;18.39;71.10
60920;BME280;59039;52.108;19.942;2023-07-22T04:41:47;100012.95;;;18.39;71.16
60920;BME280;59039;52.108;19.942;2023-07-22T04:44:12;100015.83;;;18.39;71.09
60920;BME280;59039;52.108;19.942;2023-07-22T04:46:37;100017.27;;;18.39;71.18
60920;BME280;59039;52.108;19.942;2023-07-22T04:49:02;100018.08;;;18.40;71.24
60920;BME280;59039;52.108;19.942;2023-07-22T04:51:28;100025.70;;;18.41;71.15
60920;BME280;59039;52.108;19.942;2023-07-22T04:53:53;100030.35;;;18.40;71.00
60920;BME280;59039;52.108;19.942;2023-07-22T04:56:18;100033.48;;;18.40;70.84
60920;BME280;59039;52.108;19.942;2023-07-22T04:58:43;100039.92;;;18.40;70.79
60920;BME280;59039;52.108;19.942;2023-07-22T05:01:08;100035.64;;;18.40;70.63
60920;BME280;59039;52.108;19.942;2023-07-22T05:03:34;100040.52;;;18.40;70.38
60920;BME280;59039;52.108;19.942;2023-07-22T05:05:59;100043.27;;;18.40;70.15
60920;BME280;59039;52.108;19.942;2023-07-22T05:08:24;100038.31;;;18.40;70.28
60920;BME280;59039;52.108;19.942;2023-07-22T05:10:49;100039.80;;;18.38;70.38
60920;BME280;59039;52.108;19.942;2023-07-22T05:13:15;100043.93;;;18.37;70.23
60920;BME280;59039;52.108;19.942;2023-07-22T05:15:40;100052.74;;;18.37;70.23
60920;BME280;59039;52.108;19.942;2023-07-22T05:18:05;100052.87;;;18.38;70.38
60920;BME280;59039;52.108;19.942;2023-07-22T05:20:30;100044.36;;;18.37;70.18
60920;BME280;59039;52.108;19.942;2023-07-22T05:22:56;100035.17;;;18.37;70.26
60920;BME280;59039;52.108;19.942;2023-07-22T05:25:21;100028.70;;;18.37;70.28
60920;BME280;59039;52.108;19.942;2023-07-22T05:27:46;100027.65;;;18.37;70.41
60920;BME280;59039;52.108;19.942;2023-07-22T05:30:11;100031.50;;;18.37;70.29
60920;BME280;59039;52.108;19.942;2023-07-22T05:32:37;100038.18;;;18.38;70.35
60920;BME280;59039;52.108;19.942;2023-07-22T05:35:02;100039.86;;;18.39;70.27
60920;BME280;59039;52.108;19.942;2023-07-22T05:37:27;100038.65;;;18.40;69.94
60920;BME280;59039;52.108;19.942;2023-07-22T05:39:52;100044.44;;;18.42;69.87
60920;BME280;59039;52.108;19.942;2023-07-22T05:42:18;100051.63;;;18.43;69.94
60920;BME280;59039;52.108;19.942;2023-07-22T05:44:43;100058.83;;;18.44;69.96
60920;BME280;59039;52.108;19.942;2023-07-22T05:47:09;100056.33;;;18.47;69.96
60920;BME280;59039;52.108;19.942;2023-07-22T05:49:34;100058.94;;;18.52;70.10
60920;BME280;59039;52.108;19.942;2023-07-22T05:51:59;100062.56;;;18.58;70.10
60920;BME280;59039;52.108;19.942;2023-07-22T05:54:24;100061.36;;;18.65;70.10
60920;BME280;59039;52.108;19.942;2023-07-22T05:56:50;100069.17;;;18.72;70.05
60920;BME280;59039;52.108;19.942;2023-07-22T05:59:15;100069.50;;;18.79;69.91
60920;BME280;59039;52.108;19.942;2023-07-22T06:01:40;100068.85;;;18.86;69.82
60920;BME280;59039;52.108;19.942;2023-07-22T06:04:05;100059.00;;;18.92;69.83
60920;BME280;59039;52.108;19.942;2023-07-22T06:06:31;100061.05;;;18.98;69.66
60920;BME280;59039;52.108;19.942;2023-07-22T06:08:56;100064.08;;;19.03;69.56
60920;BME280;59039;52.108;19.942;2023-07-22T06:11:21;100063.71;;;19.07;69.56
60920;BME280;59039;52.108;19.942;2023-07-22T06:13:46;100066.71;;;19.11;69.28
60920;BME280;59039;52.108;19.942;2023-07-22T06:16:12;100072.45;;;19.16;69.10
60920;BME280;59039;52.108;19.942;2023-07-22T06:18:37;100071.80;;;19.19;69.06
60920;BME280;59039;52.108;19.942;2023-07-22T06:21:02;100078.69;;;19.23;69.12
60920;BME280;59039;52.108;19.942;2023-07-22T06:23:27;100079.73;;;19.26;69.04
60920;BME280;59039;52.108;19.942;2023-07-22T06:25:53;100074.55;;;19.27;68.67
60920;BME280;59039;52.108;19.942;2023-07-22T06:28:18;100075.39;;;19.29;68.60
60920;BME280;59039;52.108;19.942;2023-07-22T06:30:43;100079.48;;;19.33;68.58
60920;BME280;59039;52.108;19.942;2023-07-22T06:33:09;100084.06;;;19.38;68.60
60920;BME280;59039;52.108;19.942;2023-07-22T06:35:34;100087.77;;;19.44;68.59
60920;BME280;59039;52.108;19.942;2023-07-22T06:37:59;100089.89;;;19.51;68.52
60920;BME280;59039;52.108;19.942;2023-07-22T06:40:25;100094.32;;;19.61;68.32
60920;BME280;59039;52.108;19.942;2023-07-22T06:42:50;100094.48;;;19.70;67.78
60920;BME280;59039;52.108;19.942;2023-07-22T06:45:15;100094.38;;;19.81;67.97
60920;BME280;59039;52.108;19.942;2023-07-22T06:47:41;100091.95;;;19.94;67.77
60920;BME280;59039;52.108;19.942;2023-07-22T06:50:06;100094.72;;;20.08;67.24
60920;BME280;59039;52.108;19.942;2023-07-22T06:52:32;100096.59;;;20.22;67.09
60920;BME280;59039;52.108;19.942;2023-07-22T06:54:57;100091.91;;;20.37;66.82
60920;BME280;59039;52.108;19.942;2023-07-22T06:57:22;100092.79;;;20.52;66.14
60920;BME280;59039;52.108;19.942;2023-07-22T06:59:48;100093.09;;;20.66;65.51
60920;BME280;59039;52.108;19.942;2023-07-22T07:02:13;100093.48;;;20.80;64.97
60920;BME280;59039;52.108;19.942;2023-07-22T07:04:38;100094.42;;;20.94;64.04
60920;BME280;59039;52.108;19.942;2023-07-22T07:07:04;100101.40;;;21.08;63.97
60920;BME280;59039;52.108;19.942;2023-07-22T07:09:29;100106.10;;;21.22;63.70
60920;BME280;59039;52.108;19.942;2023-07-22T07:11:54;100107.50;;;21.36;63.53
60920;BME280;59039;52.108;19.942;2023-07-22T07:14:19;100108.65;;;21.50;62.46
60920;BME280;59039;52.108;19.942;2023-07-22T07:16:45;100110.52;;;21.64;61.99
60920;BME280;59039;52.108;19.942;2023-07-22T07:19:10;100114.64;;;21.76;62.16
60920;BME280;59039;52.108;19.942;2023-07-22T07:21:35;100113.52;;;21.88;62.25
60920;BME280;59039;52.108;19.942;2023-07-22T07:24:00;100111.52;;;22.00;61.59
60920;BME280;59039;52.108;19.942;2023-07-22T07:26:26;100113.54;;;22.08;61.42
60920;BME280;59039;52.108;19.942;2023-07-22T07:28:51;100122.02;;;22.19;61.19
60920;BME280;59039;52.108;19.942;2023-07-22T07:31:17;100122.94;;;22.29;61.07
60920;BME280;59039;52.108;19.942;2023-07-22T07:33:42;100124.27;;;22.38;60.37
60920;BME280;59039;52.108;19.942;2023-07-22T07:36:07;100124.03;;;22.47;59.86
60920;BME280;59039;52.108;19.942;2023-07-22T07:38:32;100126.04;;;22.57;58.18
60920;BME280;59039;52.108;19.942;2023-07-22T07:40:59;100135.42;;;22.62;57.65
60920;BME280;59039;52.108;19.942;2023-07-22T07:43:25;100134.83;;;22.65;56.77
60920;BME280;59039;52.108;19.942;2023-07-22T07:46:11;100145.06;;;22.71;57.44
60920;BME280;59039;52.108;19.942;2023-07-22T07:48:37;100141.02;;;22.84;57.95
60920;BME280;59039;52.108;19.942;2023-07-22T07:51:02;100145.71;;;22.96;57.29
60920;BME280;59039;52.108;19.942;2023-07-22T07:53:27;100153.54;;;23.07;56.88
60920;BME280;59039;52.108;19.942;2023-07-22T07:55:52;100148.38;;;23.18;56.64
60920;BME280;59039;52.108;19.942;2023-07-22T07:58:18;100150.46;;;23.22;55.66
60920;BME280;59039;52.108;19.942;2023-07-22T08:00:43;100154.17;;;23.32;55.25
60920;BME280;59039;52.108;19.942;2023-07-22T08:03:08;100150.66;;;23.45;55.36
60920;BME280;59039;52.108;19.942;2023-07-22T08:05:33;100162.45;;;23.46;54.08
60920;BME280;59039;52.108;19.942;2023-07-22T08:07:58;100163.61;;;23.51;52.87
60920;BME280;59039;52.108;19.942;2023-07-22T08:10:24;100162.71;;;23.65;52.11
60920;BME280;59039;52.108;19.942;2023-07-22T08:12:49;100164.70;;;23.72;52.34
60920;BME280;59039;52.108;19.942;2023-07-22T08:15:14;100160.45;;;23.90;52.24
60920;BME280;59039;52.108;19.942;2023-07-22T08:17:39;100159.05;;;24.07;51.56
60920;BME280;59039;52.108;19.942;2023-07-22T08:20:05;100157.15;;;24.29;51.16
60920;BME280;59039;52.108;19.942;2023-07-22T08:22:31;100155.62;;;24.50;50.85
60920;BME280;59039;52.108;19.942;2023-07-22T08:24:56;100156.43;;;24.70;50.75
60920;BME280;59039;52.108;19.942;2023-07-22T08:27:21;100159.47;;;24.87;50.01
60920;BME280;59039;52.108;19.942;2023-07-22T08:29:46;100164.52;;;24.98;49.23
60920;BME280;59039;52.108;19.942;2023-07-22T08:32:11;100161.71;;;25.00;48.48
60920;BME280;59039;52.108;19.942;2023-07-22T08:34:37;100166.71;;;24.97;47.58
60920;BME280;59039;52.108;19.942;2023-07-22T08:37:02;100171.84;;;24.94;47.69
60920;BME280;59039;52.108;19.942;2023-07-22T08:39:27;100171.34;;;24.90;48.01
60920;BME280;59039;52.108;19.942;2023-07-22T08:41:54;100175.20;;;24.81;47.90
60920;BME280;59039;52.108;19.942;2023-07-22T08:44:20;100179.13;;;24.71;48.08
60920;BME280;59039;52.108;19.942;2023-07-22T08:46:47;100179.27;;;24.60;47.68
60920;BME280;59039;52.108;19.942;2023-07-22T08:49:15;100182.23;;;24.47;47.61
60920;BME280;59039;52.108;19.942;2023-07-22T08:51:40;100177.58;;;24.36;48.18
60920;BME280;59039;52.108;19.942;2023-07-22T08:54:06;100179.29;;;24.25;48.17
60920;BME280;59039;52.108;19.942;2023-07-22T08:56:32;100181.02;;;24.17;47.87
60920;BME280;59039;52.108;19.942;2023-07-22T08:58:58;100177.49;;;24.08;47.58
60920;BME280;59039;52.108;19.942;2023-07-22T09:01:23;100178.94;;;23.99;47.73
60920;BME280;59039;52.108;19.942;2023-07-22T09:03:49;100176.85;;;23.91;48.56
60920;BME280;59039;52.108;19.942;2023-07-22T09:06:15;100178.55;;;23.82;48.80
60920;BME280;59039;52.108;19.942;2023-07-22T09:08:42;100175.33;;;23.73;48.96
60920;BME280;59039;52.108;19.942;2023-07-22T09:11:07;100176.70;;;23.65;48.92
60920;BME280;59039;52.108;19.942;2023-07-22T09:13:33;100176.11;;;23.58;49.25
60920;BME280;59039;52.108;19.942;2023-07-22T09:15:59;100175.82;;;23.52;48.82
60920;BME280;59039;52.108;19.942;2023-07-22T09:18:25;100175.55;;;23.47;48.86
60920;BME280;59039;52.108;19.942;2023-07-22T09:20:50;100181.36;;;23.40;49.12
60920;BME280;59039;52.108;19.942;2023-07-22T09:23:15;100185.30;;;23.32;49.32
60920;BME280;59039;52.108;19.942;2023-07-22T09:25:41;100188.91;;;23.28;49.21
60920;BME280;59039;52.108;19.942;2023-07-22T09:28:07;100185.50;;;23.21;49.48
60920;BME280;59039;52.108;19.942;2023-07-22T09:30:37;100187.45;;;23.13;49.36
60920;BME280;59039;52.108;19.942;2023-07-22T10:38:26;100194.28;;;23.05;46.43
60920;BME280;59039;52.108;19.942;2023-07-22T10:42:27;100201.12;;;23.18;45.80
60920;BME280;59039;52.108;19.942;2023-07-22T10:44:59;100204.73;;;23.16;45.79
60920;BME280;59039;52.108;19.942;2023-07-22T10:47:32;100200.86;;;23.16;45.52
60920;BME280;59039;52.108;19.942;2023-07-22T10:50:06;100202.70;;;23.15;45.06
60920;BME280;59039;52.108;19.942;2023-07-22T10:52:42;100203.73;;;23.13;44.51
60920;BME280;59039;52.108;19.942;2023-07-22T10:55:15;100199.20;;;23.11;44.18
60920;BME280;59039;52.108;19.942;2023-07-22T10:57:48;100203.96;;;23.11;45.04
60920;BME280;59039;52.108;19.942;2023-07-22T11:00:19;100196.48;;;23.11;45.18
60920;BME280;59039;52.108;19.942;2023-07-22T11:02:47;100200.00;;;23.12;45.42
60920;BME280;59039;52.108;19.942;2023-07-22T11:05:16;100199.61;;;23.15;44.20
60920;BME280;59039;52.108;19.942;2023-07-22T11:07:44;100199.20;;;23.16;43.96
60920;BME280;59039;52.108;19.942;2023-07-22T11:10:18;100209.16;;;23.18;43.72
60920;BME280;59039;52.108;19.942;2023-07-22T11:12:44;100216.31;;;23.18;44.00
60920;BME280;59039;52.108;19.942;2023-07-22T11:15:10;100219.02;;;23.17;44.00
60920;BME280;59039;52.108;19.942;2023-07-22T11:17:35;100215.27;;;23.16;43.78
60920;BME280;59039;52.108;19.942;2023-07-22T11:20:01;100222.19;;;23.16;43.99
60920;BME280;59039;52.108;19.942;2023-07-22T11:22:27;100219.09;;;23.16;44.63
60920;BME280;59039;52.108;19.942;2023-07-22T11:24:52;100214.16;;;23.16;44.41
60920;BME280;59039;52.108;19.942;2023-07-22T11:27:17;100218.00;;;23.17;44.32
60920;BME280;59039;52.108;19.942;2023-07-22T11:29:43;100217.28;;;23.17;43.82
60920;BME280;59039;52.108;19.942;2023-07-22T11:32:18;100226.02;;;23.16;43.89
60920;BME280;59039;52.108;19.942;2023-07-22T11:34:44;100222.94;;;23.15;43.56
60920;BME280;59039;52.108;19.942;2023-07-22T11:37:09;100227.11;;;23.15;44.41
60920;BME280;59039;52.108;19.942;2023-07-22T11:39:34;100224.55;;;23.15;44.75
60920;BME280;59039;52.108;19.942;2023-07-22T11:42:00;100219.67;;;23.16;44.38
60920;BME280;59039;52.108;19.942;2023-07-22T11:44:27;100219.92;;;23.16;44.42
60920;BME280;59039;52.108;19.942;2023-07-22T11:47:03;100217.38;;;23.18;44.51
60920;BME280;59039;52.108;19.942;2023-07-22T11:49:30;100218.65;;;23.21;44.90
60920;BME280;59039;52.108;19.942;2023-07-22T11:52:07;100219.16;;;23.21;44.62
60920;BME280;59039;52.108;19.942;2023-07-22T11:54:33;100228.48;;;23.22;44.60
60920;BME280;59039;52.108;19.942;2023-07-22T11:57:18;100227.25;;;23.21;44.46
60920;BME280;59039;52.108;19.942;2023-07-22T11:59:45;100225.56;;;23.20;44.69
60920;BME280;59039;52.108;19.942;2023-07-22T12:02:15;100224.34;;;23.20;44.45
60920;BME280;59039;52.108;19.942;2023-07-22T12:04:40;100217.52;;;23.20;44.66
60920;BME280;59039;52.108;19.942;2023-07-22T12:07:05;100220.14;;;23.21;45.15
60920;BME280;59039;52.108;19.942;2023-07-22T12:09:31;100214.73;;;23.22;44.87
60920;BME280;59039;52.108;19.942;2023-07-22T12:11:58;100217.99;;;23.24;44.71
60920;BME280;59039;52.108;19.942;2023-07-22T12:14:23;100222.53;;;23.25;44.79
60920;BME280;59039;52.108;19.942;2023-07-22T12:16:55;100224.77;;;23.26;44.70
60920;BME280;59039;52.108;19.942;2023-07-22T12:19:20;100226.63;;;23.25;44.25
60920;BME280;59039;52.108;19.942;2023-07-22T12:21:46;100229.97;;;23.24;44.13
60920;BME280;59039;52.108;19.942;2023-07-22T12:24:13;100227.70;;;23.22;43.63
60920;BME280;59039;52.108;19.942;2023-07-22T12:26:39;100225.64;;;23.21;43.75
60920;BME280;59039;52.108;19.942;2023-07-22T12:29:04;100220.36;;;23.20;43.46
60920;BME280;59039;52.108;19.942;2023-07-22T12:31:29;100215.34;;;23.22;43.91
60920;BME280;59039;52.108;19.942;2023-07-22T12:33:54;100222.60;;;23.24;43.96
60920;BME280;59039;52.108;19.942;2023-07-22T12:36:20;100219.27;;;23.26;44.10
60920;BME280;59039;52.108;19.942;2023-07-22T12:38:45;100213.48;;;23.28;43.79
60920;BME280;59039;52.108;19.942;2023-07-22T12:41:10;100221.09;;;23.31;44.14
60920;BME280;59039;52.108;19.942;2023-07-22T12:43:35;100224.75;;;23.33;44.46
60920;BME280;59039;52.108;19.942;2023-07-22T12:46:01;100224.09;;;23.37;44.25
60920;BME280;59039;52.108;19.942;2023-07-22T12:48:26;100221.91;;;23.38;42.89
60920;BME280;59039;52.108;19.942;2023-07-22T12:50:51;100220.33;;;23.39;42.62
60920;BME280;59039;52.108;19.942;2023-07-22T12:53:16;100222.85;;;23.41;42.50
60920;BME280;59039;52.108;19.942;2023-07-22T12:55:42;100220.70;;;23.42;42.08
60920;BME280;59039;52.108;19.942;2023-07-22T12:58:07;100216.12;;;23.42;41.78
60920;BME280;59039;52.108;19.942;2023-07-22T13:00:32;100218.69;;;23.43;40.44
60920;BME280;59039;52.108;19.942;2023-07-22T13:02:57;100213.41;;;23.43;40.27
60920;BME280;59039;52.108;19.942;2023-07-22T13:05:23;100217.77;;;23.44;40.25
60920;BME280;59039;52.108;19.942;2023-07-22T13:07:48;100222.88;;;23.44;40.22
60920;BME280;59039;52.108;19.942;2023-07-22T13:10:13;100217.95;;;23.45;39.86
60920;BME280;59039;52.108;19.942;2023-07-22T13:12:39;100222.62;;;23.46;39.56
60920;BME280;59039;52.108;19.942;2023-07-22T13:15:04;100219.70;;;23.47;40.40
60920;BME280;59039;52.108;19.942;2023-07-22T13:17:31;100224.72;;;23.48;40.51
60920;BME280;59039;52.108;19.942;2023-07-22T13:19:56;100229.64;;;23.49;40.66
60920;BME280;59039;52.108;19.942;2023-07-22T13:22:21;100232.23;;;23.48;40.24
60920;BME280;59039;52.108;19.942;2023-07-22T13:24:47;100232.78;;;23.48;40.87
60920;BME280;59039;52.108;19.942;2023-07-22T13:27:12;100231.55;;;23.48;41.14
60920;BME280;59039;52.108;19.942;2023-07-22T13:29:37;100234.71;;;23.48;41.23
60920;BME280;59039;52.108;19.942;2023-07-22T13:32:02;100238.19;;;23.47;41.52
60920;BME280;59039;52.108;19.942;2023-07-22T13:34:28;100240.11;;;23.46;42.13
60920;BME280;59039;52.108;19.942;2023-07-22T13:36:53;100250.27;;;23.43;42.19
60920;BME280;59039;52.108;19.942;2023-07-22T13:39:18;100249.20;;;23.40;42.30
60920;BME280;59039;52.108;19.942;2023-07-22T13:41:43;100246.05;;;23.38;42.62
60920;BME280;59039;52.108;19.942;2023-07-22T13:44:08;100248.59;;;23.36;42.70